Time;durP1;ratioP1;P1;durP2;ratioP2;P2;SDS_P1;SDS_P2;PMS_P1;PMS_P2;Temp;Humidity;BMP_temperature;BMP_pressure;BME280_temperature;BME280_humidity;BME280_pressure;Samples;Min_cycle;Max_cycle;Signal;HPM_P1;HPM_P2
2022/04/26 03:37:05;;;;;;;3.17;2.05;;;22.60;42.70;;;;;;5005632;28;20250;-43
2022/04/26 03:39:34;;;;;;;3.13;2.00;;;22.60;42.70;;;;;;5005675;28;20409;-43
2022/04/26 03:42:02;;;;;;;3.80;2.17;;;22.60;42.70;;;;;;5003356;28;20513;-43
2022/04/26 03:44:28;;;;;;;3.72;2.40;;;22.60;42.70;;;;;;5005034;28;20033;-43
2022/04/26 03:46:54;;;;;;;3.55;2.08;;;22.60;42.70;;;;;;5005180;28;20069;-43
2022/04/26 03:49:24;;;;;;;3.25;2.08;;;22.50;42.70;;;;;;5003926;28;20061;-43
2022/04/26 03:51:53;;;;;;;3.80;2.90;;;22.60;42.70;;;;;;5005205;28;20029;-43
2022/04/26 03:54:20;;;;;;;3.50;2.20;;;22.60;42.70;;;;;;5005246;28;20030;-43
2022/04/26 03:56:46;;;;;;;3.50;2.30;;;22.50;42.70;;;;;;5004939;28;20037;-43
2022/04/26 03:59:11;;;;;;;3.08;2.08;;;22.60;42.70;;;;;;5004985;28;20026;-43
2022/04/26 04:01:37;;;;;;;3.65;2.45;;;22.50;42.70;;;;;;5004673;28;20033;-43
2022/04/26 04:04:03;;;;;;;3.15;2.17;;;22.50;42.80;;;;;;5005110;28;20033;-43
2022/04/26 04:06:29;;;;;;;3.10;2.08;;;22.50;42.70;;;;;;5004552;28;20038;-44
2022/04/26 04:08:55;;;;;;;3.22;2.13;;;22.50;42.70;;;;;;5004505;28;20022;-43
2022/04/26 04:11:21;;;;;;;3.45;2.20;;;22.50;42.70;;;;;;5004274;28;20022;-43
2022/04/26 04:13:46;;;;;;;3.63;2.20;;;22.50;42.70;;;;;;5004570;28;20081;-43
2022/04/26 04:16:12;;;;;;;3.38;2.20;;;22.50;42.70;;;;;;5004572;28;20507;-43
2022/04/26 04:21:22;;;;;;;3.72;2.33;;;22.50;42.80;;;;;;5007813;28;20029;-43
2022/04/26 04:23:48;;;;;;;3.50;2.00;;;22.50;42.90;;;;;;4996475;28;20030;-43
2022/04/26 04:26:13;;;;;;;3.40;2.35;;;22.50;43.00;;;;;;4995891;28;20026;-43
2022/04/26 04:28:39;;;;;;;3.67;2.30;;;22.60;43.00;;;;;;5008567;28;20266;-44
2022/04/26 04:31:05;;;;;;;3.30;2.10;;;22.60;43.00;;;;;;5007878;28;20021;-43
2022/04/26 04:33:31;;;;;;;3.85;2.10;;;22.60;42.90;;;;;;5008424;28;20632;-43
2022/04/26 04:35:57;;;;;;;3.60;2.50;;;22.60;42.90;;;;;;5007740;28;20072;-43
2022/04/26 04:38:22;;;;;;;4.18;2.42;;;22.60;42.90;;;;;;5007673;28;20065;-44
2022/04/26 04:40:48;;;;;;;4.32;2.45;;;22.70;42.90;;;;;;5006015;28;20026;-44
2022/04/26 04:43:14;;;;;;;3.38;2.20;;;22.70;42.80;;;;;;5007148;28;20041;-43
2022/04/26 04:45:40;;;;;;;3.17;2.00;;;22.80;42.70;;;;;;5016581;28;20017;-43
2022/04/26 04:48:06;;;;;;;4.03;2.30;;;22.80;42.70;;;;;;5015559;28;20018;-44
2022/04/26 04:50:36;;;;;;;2.58;1.80;;;22.90;42.80;;;;;;5016513;28;20028;-43
2022/04/26 04:53:02;;;;;;;2.80;1.67;;;22.90;43.00;;;;;;5016368;28;20026;-43
2022/04/26 04:55:28;;;;;;;4.70;2.63;;;22.90;43.10;;;;;;5016859;28;20033;-43
2022/04/26 04:57:54;;;;;;;3.80;2.67;;;23.00;43.20;;;;;;5016398;28;20033;-43
2022/04/26 05:00:20;;;;;;;3.45;2.33;;;23.00;43.00;;;;;;5016790;28;20029;-42
2022/04/26 05:02:45;;;;;;;3.75;2.50;;;23.10;43.00;;;;;;5016389;28;20022;-42
2022/04/26 05:05:12;;;;;;;3.95;2.70;;;23.10;43.00;;;;;;5016928;28;20029;-44
2022/04/26 05:07:39;;;;;;;3.80;2.50;;;23.10;42.80;;;;;;5015173;28;20041;-42
2022/04/26 05:10:06;;;;;;;4.00;2.60;;;23.10;42.50;;;;;;5015508;28;20022;-43
2022/04/26 05:12:32;;;;;;;4.45;2.72;;;23.20;42.60;;;;;;5015953;28;20029;-43
2022/04/26 05:14:58;;;;;;;4.68;3.20;;;23.20;42.50;;;;;;5015315;28;20192;-43
2022/04/26 05:17:23;;;;;;;4.50;2.75;;;23.20;42.60;;;;;;5016584;28;20132;-44
2022/04/26 05:19:49;;;;;;;5.70;3.22;;;23.30;43.10;;;;;;5015878;28;20436;-43
2022/04/26 05:22:15;;;;;;;7.30;3.40;;;23.30;43.30;;;;;;5015677;28;20030;-43
2022/04/26 05:24:54;;;;;;;8.85;4.25;;;23.30;44.50;;;;;;5012888;28;20026;-42
2022/04/26 05:27:31;;;;;;;8.27;4.53;;;23.30;45.50;;;;;;5016383;28;20071;-43
2022/04/26 05:29:57;;;;;;;7.20;4.30;;;23.30;45.80;;;;;;5014737;28;20711;-44
2022/04/26 05:32:25;;;;;;;9.45;4.22;;;23.40;46.30;;;;;;5016229;28;20259;-44
2022/04/26 05:34:58;;;;;;;6.75;4.35;;;23.40;46.10;;;;;;5016796;28;20511;-44
2022/04/26 05:37:25;;;;;;;8.18;4.40;;;23.40;46.40;;;;;;5015977;28;20048;-43
2022/04/26 05:39:51;;;;;;;6.53;3.78;;;23.40;46.10;;;;;;5016551;28;20018;-44
2022/04/26 05:42:17;;;;;;;7.20;4.22;;;23.40;46.30;;;;;;5015761;28;20021;-43
2022/04/26 05:44:43;;;;;;;6.07;4.15;;;23.40;46.10;;;;;;5013094;28;20035;-44
2022/04/26 05:47:09;;;;;;;7.32;4.60;;;23.50;46.00;;;;;;5015353;28;20076;-44
2022/04/26 05:49:36;;;;;;;6.80;3.90;;;23.50;46.00;;;;;;5015646;28;20025;-44
2022/04/26 05:52:02;;;;;;;5.50;3.60;;;23.50;45.60;;;;;;5011109;28;20029;-43
2022/04/26 05:54:29;;;;;;;6.60;4.30;;;23.50;45.50;;;;;;5006629;28;20037;-44
2022/04/26 05:56:55;;;;;;;6.47;3.85;;;23.50;45.40;;;;;;5007308;28;20433;-44
2022/04/26 05:59:21;;;;;;;6.68;3.67;;;23.60;45.40;;;;;;5006351;28;20096;-44
2022/04/26 06:01:47;;;;;;;5.55;3.63;;;23.60;45.10;;;;;;5005961;28;20243;-44
2022/04/26 06:04:13;;;;;;;5.43;3.65;;;23.60;45.00;;;;;;5006178;28;20444;-43
2022/04/26 06:06:39;;;;;;;4.85;3.33;;;23.60;44.90;;;;;;5006677;28;20069;-43
2022/04/26 06:09:05;;;;;;;5.40;3.15;;;23.70;45.00;;;;;;5006634;28;20438;-45
2022/04/26 06:11:32;;;;;;;4.72;3.30;;;23.70;45.10;;;;;;5005753;28;20520;-43
2022/04/26 06:13:58;;;;;;;5.78;3.78;;;23.70;45.00;;;;;;5009479;28;20033;-41
2022/04/26 06:16:24;;;;;;;6.13;3.42;;;23.70;44.70;;;;;;5015102;28;20029;-41
2022/04/26 06:18:50;;;;;;;4.93;3.30;;;23.70;44.60;;;;;;5016448;28;20602;-42
2022/04/26 06:21:15;;;;;;;4.55;3.20;;;23.70;44.60;;;;;;5014947;28;20112;-41
2022/04/26 06:23:42;;;;;;;5.05;3.28;;;23.70;44.40;;;;;;5015348;28;20078;-41
2022/04/26 06:26:08;;;;;;;5.90;3.17;;;23.80;44.30;;;;;;5015032;28;20481;-41
2022/04/26 06:28:34;;;;;;;4.47;2.72;;;23.80;44.00;;;;;;5013834;28;20058;-43
2022/04/26 06:31:00;;;;;;;6.50;3.60;;;23.80;43.80;;;;;;5014904;28;20026;-43
2022/04/26 06:33:26;;;;;;;5.13;3.15;;;23.80;44.00;;;;;;5016715;28;20025;-43
2022/04/26 06:35:52;;;;;;;4.90;3.75;;;23.80;44.00;;;;;;5005916;28;20041;-42
2022/04/26 06:38:18;;;;;;;5.43;3.42;;;23.80;43.80;;;;;;5004931;28;20030;-43
2022/04/26 06:40:47;;;;;;;7.35;3.45;;;23.80;43.80;;;;;;5005366;28;20022;-42
2022/04/26 06:43:14;;;;;;;5.80;3.38;;;23.80;43.40;;;;;;5004562;28;20102;-43
2022/04/26 06:45:40;;;;;;;5.28;3.20;;;23.80;43.10;;;;;;5005742;28;20030;-43
2022/04/26 06:48:09;;;;;;;5.57;3.33;;;23.80;42.90;;;;;;5005917;28;20034;-43
2022/04/26 06:50:36;;;;;;;5.18;2.95;;;23.70;43.00;;;;;;5005834;28;20061;-42
2022/04/26 06:53:02;;;;;;;5.18;3.20;;;23.80;43.00;;;;;;5004589;28;20045;-43
2022/04/26 06:55:28;;;;;;;4.80;2.97;;;23.80;42.90;;;;;;5005500;28;20018;-43
2022/04/26 06:57:53;;;;;;;4.55;3.30;;;23.80;42.90;;;;;;5006153;28;20060;-42
2022/04/26 07:00:19;;;;;;;4.75;3.05;;;23.80;42.80;;;;;;5005806;28;20049;-43
2022/04/26 07:02:45;;;;;;;4.72;3.08;;;23.70;42.70;;;;;;5005413;28;20029;-43
2022/04/26 07:05:13;;;;;;;6.43;3.45;;;23.70;42.80;;;;;;5004311;28;20109;-43
2022/04/26 07:07:39;;;;;;;5.53;3.22;;;23.70;43.30;;;;;;5005596;28;20064;-42
2022/04/26 07:10:05;;;;;;;6.72;3.80;;;23.70;42.60;;;;;;5005546;28;20022;-43
2022/04/26 07:12:31;;;;;;;7.10;4.28;;;23.70;42.60;;;;;;5005239;28;20036;-43
2022/04/26 07:14:58;;;;;;;4.78;3.30;;;23.70;42.60;;;;;;5005577;28;20493;-43
2022/04/26 07:17:24;;;;;;;5.20;3.38;;;23.70;42.60;;;;;;5005490;28;20038;-43
2022/04/26 07:19:50;;;;;;;5.55;3.33;;;23.70;42.60;;;;;;5005719;28;20037;-42
2022/04/26 07:22:16;;;;;;;5.10;3.55;;;23.70;42.60;;;;;;5005241;28;20397;-43
2022/04/26 07:24:41;;;;;;;7.82;3.13;;;23.70;42.60;;;;;;5005231;28;20535;-43
2022/04/26 07:27:07;;;;;;;4.50;2.90;;;23.70;43.20;;;;;;5005526;28;20060;-43
2022/04/26 07:29:33;;;;;;;5.35;2.90;;;23.70;42.50;;;;;;5005679;28;20034;-42
2022/04/26 07:31:59;;;;;;;5.35;2.78;;;23.70;42.50;;;;;;5005296;28;20029;-43
2022/04/26 07:34:25;;;;;;;4.50;2.65;;;23.70;42.40;;;;;;5004288;28;20649;-43
2022/04/26 07:37:04;;;;;;;5.10;3.10;;;23.60;42.30;;;;;;5004366;28;20109;-43
2022/04/26 07:39:33;;;;;;;4.82;3.00;;;23.60;42.20;;;;;;5004560;28;20026;-43
2022/04/26 07:42:00;;;;;;;4.38;2.58;;;23.60;42.20;;;;;;5004376;28;20018;-42
2022/04/26 07:44:25;;;;;;;4.20;2.80;;;23.60;42.20;;;;;;5004340;28;20018;-43
2022/04/26 07:46:53;;;;;;;4.22;2.45;;;23.60;42.30;;;;;;5004668;28;20107;-43
2022/04/26 07:49:19;;;;;;;5.15;3.08;;;23.60;42.40;;;;;;5004320;28;20057;-43
2022/04/26 07:51:45;;;;;;;4.30;2.65;;;23.60;42.50;;;;;;5004383;28;20037;-43
2022/04/26 07:54:11;;;;;;;3.70;2.60;;;23.60;42.60;;;;;;5007298;28;20036;-43
2022/04/26 07:56:37;;;;;;;4.75;3.03;;;23.60;42.70;;;;;;5009510;28;20026;-43
2022/04/26 07:59:04;;;;;;;3.63;2.55;;;23.50;42.60;;;;;;5009450;28;20095;-43
2022/04/26 08:01:30;;;;;;;4.60;3.10;;;23.60;42.70;;;;;;5008532;28;20030;-43
2022/04/26 08:03:56;;;;;;;4.05;2.72;;;23.50;42.70;;;;;;5008179;28;20105;-42
2022/04/26 08:06:23;;;;;;;4.40;3.00;;;23.60;42.60;;;;;;5005003;28;20548;-42
2022/04/26 08:08:48;;;;;;;5.15;3.00;;;23.60;42.60;;;;;;5009488;28;20022;-43
2022/04/26 08:11:15;;;;;;;6.35;2.88;;;23.60;42.50;;;;;;5008615;28;20026;-43
2022/04/26 08:13:41;;;;;;;4.03;2.78;;;23.60;42.50;;;;;;5008936;28;20033;-43
2022/04/26 08:16:08;;;;;;;4.10;2.80;;;23.60;42.50;;;;;;5009055;28;20033;-43
2022/04/26 08:18:34;;;;;;;4.80;2.88;;;23.60;42.60;;;;;;5007786;28;20082;-43
2022/04/26 08:21:00;;;;;;;3.75;2.70;;;23.60;43.30;;;;;;5008248;28;20061;-42
2022/04/26 08:23:26;;;;;;;4.13;2.55;;;23.60;42.60;;;;;;5008538;28;20037;-43
2022/04/26 08:28:37;;;;;;;4.15;2.60;;;23.60;42.50;;;;;;5008591;28;20612;-43
2022/04/26 08:31:05;;;;;;;3.97;2.80;;;23.60;42.40;;;;;;5008359;28;20026;-43
2022/04/26 08:33:31;;;;;;;3.75;2.40;;;23.60;42.50;;;;;;5008327;28;20433;-42
2022/04/26 08:35:57;;;;;;;4.47;2.97;;;23.60;42.40;;;;;;5008407;28;20038;-42
2022/04/26 08:38:22;;;;;;;3.55;2.35;;;23.60;42.30;;;;;;5008432;28;20153;-42
2022/04/26 08:40:48;;;;;;;4.35;2.53;;;23.70;42.40;;;;;;5007968;28;20387;-43
2022/04/26 08:43:14;;;;;;;4.30;2.38;;;23.70;42.40;;;;;;5008073;28;20072;-42
2022/04/26 08:45:41;;;;;;;3.45;2.55;;;23.70;42.40;;;;;;5007715;28;20034;-42
2022/04/26 08:51:12;;;;;;;4.03;2.67;;;23.60;42.10;;;;;;4947153;28;20054;-43
2022/04/26 08:53:38;;;;;;;3.67;2.38;;;23.70;42.10;;;;;;4980628;28;20070;-43
2022/04/26 08:56:06;;;;;;;6.30;2.70;;;23.60;42.10;;;;;;4994445;28;20446;-42
2022/04/26 08:58:34;;;;;;;4.78;2.70;;;23.60;42.00;;;;;;5007938;28;20040;-42
2022/04/26 09:01:18;;;;;;;3.80;2.22;;;23.60;42.00;;;;;;5007636;28;20075;-43
2022/04/26 09:03:55;;;;;;;4.43;2.72;;;23.60;42.00;;;;;;5008245;28;20088;-42
2022/04/26 09:06:36;;;;;;;3.85;2.47;;;23.60;42.00;;;;;;4996060;28;20045;-43
2022/04/26 09:09:11;;;;;;;3.75;2.30;;;23.70;42.10;;;;;;4988482;28;20117;-42
2022/04/26 09:11:38;;;;;;;4.72;2.75;;;23.60;41.90;;;;;;4987933;28;20085;-42
2022/04/26 09:14:08;;;;;;;4.30;2.80;;;23.60;42.00;;;;;;4988337;28;20039;-42
2022/04/26 09:16:34;;;;;;;4.43;2.65;;;23.60;41.90;;;;;;4988223;28;20054;-43
2022/04/26 09:19:06;;;;;;;3.92;2.78;;;23.60;41.90;;;;;;4988859;28;20026;-42
2022/04/26 09:21:35;;;;;;;4.25;2.40;;;23.60;41.90;;;;;;5006817;28;20490;-43
2022/04/26 09:24:06;;;;;;;4.65;2.90;;;23.60;41.90;;;;;;5007689;28;20097;-43
2022/04/26 09:26:40;;;;;;;4.40;2.75;;;23.50;42.00;;;;;;5007451;28;20029;-43
2022/04/26 09:29:07;;;;;;;3.88;2.42;;;23.60;42.00;;;;;;5007157;28;20030;-43
2022/04/26 09:31:32;;;;;;;3.97;2.10;;;23.60;41.90;;;;;;5006496;28;20026;-43
2022/04/26 09:34:04;;;;;;;2.97;1.95;;;23.60;41.90;;;;;;5007213;28;20549;-43
2022/04/26 09:36:35;;;;;;;4.85;2.80;;;23.60;41.90;;;;;;5007241;28;20605;-43
2022/04/26 09:39:03;;;;;;;3.83;2.53;;;23.60;41.80;;;;;;5007288;28;20390;-43
2022/04/26 09:41:30;;;;;;;3.53;2.28;;;23.60;41.80;;;;;;5006021;28;20246;-42
2022/04/26 09:44:03;;;;;;;3.85;2.40;;;23.60;41.70;;;;;;5007543;28;20022;-43
2022/04/26 09:46:53;;;;;;;4.10;2.10;;;23.60;41.80;;;;;;5006844;28;20141;-42
2022/04/26 09:49:23;;;;;;;3.72;2.35;;;23.60;41.80;;;;;;5006558;28;20034;-42
2022/04/26 09:52:01;;;;;;;3.63;2.53;;;23.60;41.90;;;;;;5006675;28;20033;-42
2022/04/26 09:54:27;;;;;;;4.32;2.67;;;23.60;41.80;;;;;;5006828;28;20041;-43
2022/04/26 09:56:53;;;;;;;3.30;2.13;;;23.60;41.80;;;;;;5006853;28;20100;-43
2022/04/26 09:59:29;;;;;;;4.60;2.80;;;23.60;41.80;;;;;;5007016;28;20061;-42
2022/04/26 10:01:57;;;;;;;6.32;2.28;;;23.70;41.90;;;;;;5006317;28;20057;-42
2022/04/26 10:04:26;;;;;;;4.07;2.38;;;23.70;41.80;;;;;;5006511;28;20589;-43
2022/04/26 10:06:57;;;;;;;3.78;2.50;;;23.70;41.80;;;;;;4999631;28;20430;-42
2022/04/26 10:09:24;;;;;;;3.85;2.28;;;23.70;41.80;;;;;;4987361;28;20026;-43
2022/04/26 10:12:00;;;;;;;3.65;2.60;;;23.70;41.70;;;;;;4986729;28;20031;-42
2022/04/26 10:14:29;;;;;;;4.05;2.47;;;23.70;41.80;;;;;;4986798;28;20038;-42
2022/04/26 10:16:55;;;;;;;3.50;2.40;;;23.70;41.70;;;;;;4986790;28;20085;-43
2022/04/26 10:19:36;;;;;;;3.88;2.08;;;23.70;41.70;;;;;;4989466;28;20034;-43
2022/04/26 10:22:02;;;;;;;2.90;1.80;;;23.70;41.80;;;;;;5006128;28;20030;-42
2022/04/26 10:24:28;;;;;;;6.72;3.15;;;23.70;41.60;;;;;;5006285;28;20021;-43
2022/04/26 10:27:17;;;;;;;3.30;2.20;;;23.70;41.60;;;;;;5006381;28;20037;-42
2022/04/26 10:29:46;;;;;;;3.38;2.25;;;23.70;41.60;;;;;;5006268;28;20026;-42
2022/04/26 10:32:31;;;;;;;3.38;2.40;;;23.70;41.60;;;;;;5003931;28;20034;-43
2022/04/26 10:35:26;;;;;;;3.83;2.17;;;23.70;41.60;;;;;;5006073;28;20030;-43
2022/04/26 10:38:07;;;;;;;3.30;2.10;;;23.70;41.60;;;;;;5005903;28;20038;-43
2022/04/26 10:41:02;;;;;;;3.30;2.30;;;23.70;41.70;;;;;;5006023;28;20567;-43
2022/04/26 10:43:27;;;;;;;3.40;2.00;;;23.70;41.60;;;;;;5005878;28;20069;-42
2022/04/26 10:46:13;;;;;;;3.80;2.13;;;23.70;41.60;;;;;;5006488;28;20728;-43
2022/04/26 10:48:39;;;;;;;3.10;2.00;;;23.70;41.60;;;;;;5006248;28;20384;-42
2022/04/26 10:51:36;;;;;;;3.45;2.60;;;23.70;41.50;;;;;;5005606;28;20104;-42
2022/04/26 10:54:05;;;;;;;3.38;2.17;;;23.60;41.50;;;;;;5006071;28;20025;-42
2022/04/26 10:56:32;;;;;;;3.58;2.13;;;23.60;41.40;;;;;;5005614;28;20065;-43
2022/04/26 10:58:58;;;;;;;3.42;2.25;;;23.60;41.40;;;;;;5006213;28;20045;-43
2022/04/26 11:01:24;;;;;;;3.22;2.30;;;23.60;41.40;;;;;;5005260;28;20066;-42
2022/04/26 11:03:55;;;;;;;3.85;2.30;;;23.60;41.40;;;;;;5005921;28;20034;-42
2022/04/26 11:06:40;;;;;;;3.42;2.05;;;23.60;41.50;;;;;;5005238;28;20481;-42
2022/04/26 11:09:10;;;;;;;3.80;2.17;;;23.60;41.50;;;;;;5002969;28;20787;-43
2022/04/26 11:11:50;;;;;;;3.45;1.90;;;23.60;41.40;;;;;;5005255;28;20109;-43
2022/04/26 11:14:22;;;;;;;3.05;1.92;;;23.60;41.40;;;;;;5005497;28;20237;-42
2022/04/26 11:17:00;;;;;;;3.63;2.00;;;23.60;41.40;;;;;;5004590;28;20454;-42
2022/04/26 11:19:33;;;;;;;3.30;1.95;;;23.60;41.40;;;;;;5004913;28;20025;-43
2022/04/26 11:22:09;;;;;;;3.35;1.80;;;23.60;41.30;;;;;;5005168;28;20452;-43
2022/04/26 11:30:10;;;;;;;3.70;2.40;;;23.60;41.20;;;;;;5005139;28;20060;-43
2022/04/26 11:32:42;;;;;;;3.85;2.13;;;23.50;41.30;;;;;;5004726;28;20659;-42
2022/04/26 11:35:13;;;;;;;3.35;2.10;;;23.50;41.40;;;;;;5005200;28;20042;-43
2022/04/26 11:37:47;;;;;;;3.20;2.08;;;23.50;42.10;;;;;;5005294;28;20034;-43
2022/04/26 11:40:34;;;;;;;3.33;2.25;;;23.60;41.50;;;;;;5004877;28;20026;-42
2022/04/26 11:43:17;;;;;;;3.08;1.90;;;23.60;41.40;;;;;;5004519;28;20026;-43
2022/04/26 11:45:51;;;;;;;3.42;1.85;;;23.60;41.40;;;;;;5005132;28;20026;-43
2022/04/26 11:48:19;;;;;;;3.70;1.90;;;23.60;41.40;;;;;;5005268;28;20026;-43
2022/04/26 11:50:48;;;;;;;3.20;2.03;;;23.60;41.40;;;;;;5004784;28;20117;-43
2022/04/26 11:53:18;;;;;;;4.22;2.25;;;23.70;41.50;;;;;;5004962;28;20060;-43
2022/04/26 11:55:46;;;;;;;4.25;2.50;;;23.70;41.60;;;;;;5004971;28;20617;-43
2022/04/26 11:58:20;;;;;;;3.85;1.80;;;23.70;41.50;;;;;;5004579;28;20077;-43
2022/04/26 12:00:52;;;;;;;3.53;2.22;;;23.70;41.60;;;;;;5004622;28;20030;-42
2022/04/26 12:03:20;;;;;;;3.30;1.85;;;23.70;41.50;;;;;;5003744;28;20083;-43
2022/04/26 12:05:49;;;;;;;3.40;2.00;;;23.70;41.50;;;;;;5004299;28;20030;-42
2022/04/26 12:08:16;;;;;;;3.10;1.85;;;23.70;41.50;;;;;;4998589;28;20043;-43
2022/04/26 12:10:42;;;;;;;6.18;2.20;;;23.70;41.40;;;;;;4983723;28;20030;-42
2022/04/26 12:13:07;;;;;;;3.00;1.73;;;23.80;41.30;;;;;;4983846;28;20035;-43
2022/04/26 12:15:38;;;;;;;3.63;2.05;;;23.80;41.20;;;;;;4984251;28;20100;-42
2022/04/26 12:18:14;;;;;;;3.15;1.90;;;23.80;41.10;;;;;;4983896;28;20027;-43
2022/04/26 12:21:02;;;;;;;3.25;2.05;;;23.90;41.10;;;;;;4995081;28;20037;-42
2022/04/26 12:23:29;;;;;;;2.78;1.70;;;23.90;41.10;;;;;;5002333;28;20393;-42
2022/04/26 12:26:04;;;;;;;2.88;1.63;;;23.90;40.90;;;;;;5004190;28;20497;-42
2022/04/26 12:28:30;;;;;;;3.58;1.90;;;23.90;40.90;;;;;;5004391;28;20489;-42
2022/04/26 12:30:57;;;;;;;2.88;1.77;;;23.90;40.90;;;;;;5004582;28;20033;-43
2022/04/26 12:33:28;;;;;;;2.80;1.65;;;23.90;40.80;;;;;;5004321;28;20029;-43
2022/04/26 12:36:05;;;;;;;2.30;1.50;;;24.00;40.70;;;;;;5004585;28;20041;-42
2022/04/26 12:38:44;;;;;;;3.85;1.90;;;24.00;40.80;;;;;;5004540;28;20034;-42
2022/04/26 12:41:10;;;;;;;3.22;1.63;;;24.00;40.60;;;;;;5007000;28;20046;-43
2022/04/26 12:43:36;;;;;;;3.28;1.67;;;24.00;40.60;;;;;;5008212;28;20390;-43
2022/04/26 12:46:06;;;;;;;3.15;2.05;;;24.10;40.70;;;;;;5008664;28;20398;-42
2022/04/26 12:51:24;;;;;;;2.65;1.63;;;24.10;40.50;;;;;;5006907;28;20604;-43
2022/04/26 12:53:52;;;;;;;2.88;1.65;;;24.10;40.50;;;;;;5008194;28;20762;-43
2022/04/26 12:56:19;;;;;;;2.90;1.65;;;24.20;40.40;;;;;;5006517;28;20045;-42
2022/04/26 12:58:47;;;;;;;2.97;1.65;;;24.20;40.20;;;;;;5007828;28;20029;-43
2022/04/26 13:01:14;;;;;;;2.28;1.40;;;24.20;40.20;;;;;;5007767;28;20157;-43
2022/04/26 13:03:42;;;;;;;2.60;1.50;;;24.20;40.20;;;;;;5008150;28;20030;-43
2022/04/26 13:06:13;;;;;;;2.80;1.77;;;24.20;40.20;;;;;;5007692;28;20034;-42
2022/04/26 13:08:43;;;;;;;2.55;1.50;;;24.20;40.20;;;;;;5004751;28;20033;-42
2022/04/26 13:11:09;;;;;;;3.30;1.63;;;24.20;40.20;;;;;;4988442;28;20068;-43
2022/04/26 13:13:36;;;;;;;3.05;1.63;;;24.20;40.20;;;;;;4987964;28;20301;-43
2022/04/26 13:16:02;;;;;;;2.53;1.40;;;24.20;40.00;;;;;;4988501;28;20030;-42
2022/04/26 13:18:28;;;;;;;3.55;1.77;;;24.20;40.00;;;;;;4987915;28;20038;-43
2022/04/26 13:20:56;;;;;;;2.47;1.38;;;24.30;40.20;;;;;;4999500;28;20030;-43
2022/04/26 13:23:22;;;;;;;3.15;1.60;;;24.30;40.30;;;;;;5007260;28;20504;-42
2022/04/26 13:25:48;;;;;;;2.40;1.52;;;24.30;40.10;;;;;;5007942;28;20596;-45
2022/04/26 13:28:14;;;;;;;2.70;1.60;;;24.30;40.10;;;;;;5007731;28;20118;-43
2022/04/26 13:30:40;;;;;;;2.72;1.60;;;24.30;39.90;;;;;;5007263;28;20033;-43
2022/04/26 13:33:06;;;;;;;2.65;1.58;;;24.30;40.00;;;;;;5006706;28;20350;-43
2022/04/26 13:35:33;;;;;;;2.60;1.30;;;24.30;39.90;;;;;;5007038;28;20107;-42
2022/04/26 13:37:59;;;;;;;2.25;1.40;;;24.40;39.90;;;;;;5007228;28;20048;-43
2022/04/26 13:40:26;;;;;;;4.22;1.67;;;24.40;39.70;;;;;;5005741;28;20033;-43
2022/04/26 13:42:51;;;;;;;2.80;1.60;;;24.40;40.00;;;;;;5007044;28;20061;-43
2022/04/26 13:45:18;;;;;;;2.90;1.50;;;24.30;39.90;;;;;;5006750;28;20749;-42
2022/04/26 13:47:45;;;;;;;2.83;1.60;;;24.40;39.80;;;;;;5007382;28;20076;-43
2022/04/26 13:50:12;;;;;;;2.50;1.35;;;24.40;39.80;;;;;;5006592;28;20026;-43
2022/04/26 13:52:40;;;;;;;2.85;1.67;;;24.40;39.50;;;;;;5006082;28;20112;-43
2022/04/26 13:55:07;;;;;;;2.55;1.42;;;24.40;39.60;;;;;;5005735;28;20038;-42
2022/04/26 13:57:33;;;;;;;2.92;1.42;;;24.40;39.60;;;;;;5006942;28;20104;-42
2022/04/26 13:59:59;;;;;;;2.50;1.45;;;24.40;39.50;;;;;;5006808;28;20163;-42
2022/04/26 14:02:25;;;;;;;2.20;1.33;;;24.40;39.40;;;;;;5006520;28;20022;-43
2022/04/26 14:04:51;;;;;;;2.10;1.20;;;24.40;39.50;;;;;;5006778;28;20022;-43
2022/04/26 14:07:17;;;;;;;3.10;1.60;;;24.40;39.50;;;;;;5006587;28;20167;-43
2022/04/26 14:09:44;;;;;;;2.53;1.50;;;24.40;39.50;;;;;;5001406;28;20091;-43
2022/04/26 14:12:11;;;;;;;2.65;1.65;;;24.40;39.50;;;;;;5006489;28;20768;-43
2022/04/26 14:22:52;;;;;;;5.93;2.65;;;24.50;38.20;;;;;;5005508;28;20141;-43
2022/04/26 14:25:18;;;;;;;3.90;2.38;;;24.50;38.00;;;;;;5007323;28;20600;-43
2022/04/26 14:27:49;;;;;;;5.05;2.20;;;24.50;37.80;;;;;;5009194;28;20073;-43
2022/04/26 14:30:16;;;;;;;4.30;2.53;;;24.50;37.50;;;;;;4999504;28;20044;-43
2022/04/26 14:32:44;;;;;;;4.03;2.00;;;24.50;37.40;;;;;;5001024;28;20038;-44
2022/04/26 14:35:10;;;;;;;4.15;2.00;;;24.50;37.50;;;;;;5007277;28;20052;-45
2022/04/26 14:37:36;;;;;;;5.25;2.38;;;24.50;37.30;;;;;;5006883;28;20033;-44
2022/04/26 14:40:04;;;;;;;3.42;2.10;;;24.50;37.00;;;;;;5014313;28;20400;-44
2022/04/26 14:42:30;;;;;;;4.53;2.25;;;24.50;36.70;;;;;;5013673;28;20045;-45
2022/04/26 14:44:57;;;;;;;6.95;2.67;;;24.50;36.30;;;;;;4997454;28;20022;-44
2022/04/26 14:47:26;;;;;;;4.13;2.25;;;24.50;36.40;;;;;;5001992;28;20026;-45
2022/04/26 14:49:59;;;;;;;3.70;2.05;;;24.50;36.70;;;;;;5004408;28;20721;-44
2022/04/26 14:52:25;;;;;;;3.72;2.72;;;24.50;36.90;;;;;;4987775;28;20030;-42
2022/04/26 14:54:51;;;;;;;4.35;2.53;;;24.50;37.00;;;;;;5004132;28;20109;-43
2022/04/26 14:57:17;;;;;;;4.47;2.35;;;24.50;37.10;;;;;;4998173;28;20029;-43
2022/04/26 14:59:48;;;;;;;3.40;2.30;;;24.50;36.80;;;;;;4996719;28;20026;-44
2022/04/26 15:02:17;;;;;;;3.35;2.00;;;24.50;37.00;;;;;;5002249;28;20713;-44
2022/04/26 15:04:46;;;;;;;5.00;1.90;;;24.50;37.80;;;;;;5002036;28;20034;-43
2022/04/26 15:07:12;;;;;;;3.28;1.58;;;24.50;38.30;;;;;;5000820;28;20048;-43
2022/04/26 15:09:44;;;;;;;3.92;1.73;;;24.50;38.50;;;;;;4976109;28;20402;-45
2022/04/26 15:17:48;;;;;;;4.65;1.83;;;24.50;39.20;;;;;;5000054;28;20164;-45
2022/04/26 15:20:15;;;;;;;4.80;1.83;;;24.50;39.20;;;;;;5007856;28;20045;-45
2022/04/26 15:22:41;;;;;;;2.92;1.50;;;24.50;39.30;;;;;;5004363;28;20061;-47
2022/04/26 15:25:09;;;;;;;3.20;1.55;;;24.50;39.40;;;;;;5002377;28;20029;-46
2022/04/26 15:27:39;;;;;;;4.30;1.50;;;24.50;39.50;;;;;;5005599;28;20674;-45
2022/04/26 15:30:07;;;;;;;4.07;1.80;;;24.60;39.50;;;;;;5001568;28;20085;-46
2022/04/26 15:32:33;;;;;;;2.65;1.42;;;24.50;39.30;;;;;;4996503;28;20061;-44
2022/04/26 15:34:59;;;;;;;2.67;1.35;;;24.50;39.30;;;;;;5002378;28;20445;-46
2022/04/26 15:37:25;;;;;;;6.22;1.50;;;24.50;39.40;;;;;;4997837;28;20037;-45
2022/04/26 15:39:53;;;;;;;3.35;1.33;;;24.50;39.60;;;;;;5004125;28;20034;-44
2022/04/26 15:42:19;;;;;;;5.10;1.25;;;24.50;39.50;;;;;;5004589;28;20060;-43
2022/04/26 15:44:45;;;;;;;2.80;1.40;;;24.50;39.30;;;;;;4997240;28;20029;-43
2022/04/26 15:47:11;;;;;;;3.42;1.58;;;24.50;39.40;;;;;;4999506;28;20359;-45
2022/04/26 15:49:37;;;;;;;4.55;1.50;;;24.50;39.40;;;;;;4996675;28;20062;-43
2022/04/26 15:52:03;;;;;;;4.53;1.63;;;24.50;39.40;;;;;;5002423;28;20157;-44
2022/04/26 15:54:29;;;;;;;3.03;1.50;;;24.50;39.30;;;;;;5004732;28;20037;-43
2022/04/26 15:56:55;;;;;;;3.03;1.50;;;24.50;39.10;;;;;;5004474;28;20065;-44
2022/04/26 15:59:21;;;;;;;4.07;1.65;;;24.50;39.00;;;;;;5004519;28;20172;-44
2022/04/26 16:01:47;;;;;;;2.22;1.27;;;24.50;39.00;;;;;;5004054;28;20037;-42
2022/04/26 16:04:13;;;;;;;2.25;1.10;;;24.50;38.90;;;;;;4990501;28;20033;-42
2022/04/26 16:06:43;;;;;;;3.20;1.52;;;24.40;38.80;;;;;;4999926;28;20413;-43
2022/04/26 16:22:53;;;;;;;2.88;1.35;;;24.30;39.00;;;;;;5008548;28;20052;-44
2022/04/26 16:25:19;;;;;;;2.40;1.38;;;24.20;39.00;;;;;;5008156;28;20030;-44
2022/04/26 16:27:48;;;;;;;2.60;1.23;;;24.30;39.10;;;;;;5008511;28;20022;-42
2022/04/26 16:30:14;;;;;;;2.38;1.27;;;24.20;39.00;;;;;;5008231;28;20041;-43
2022/04/26 16:32:40;;;;;;;1.80;1.00;;;24.20;39.00;;;;;;5007588;28;20030;-44
2022/04/26 16:35:08;;;;;;;2.75;1.00;;;24.20;39.10;;;;;;5008120;28;20030;-43
2022/04/26 16:37:34;;;;;;;3.50;1.52;;;24.20;39.10;;;;;;5008586;28;20444;-43
2022/04/26 16:40:01;;;;;;;3.05;1.55;;;24.10;39.10;;;;;;5008105;28;20456;-43
2022/04/26 16:42:26;;;;;;;2.13;1.02;;;24.10;39.10;;;;;;5007658;28;20115;-42
2022/04/26 16:44:52;;;;;;;2.80;1.30;;;24.10;39.10;;;;;;5004417;28;20022;-44
2022/04/26 16:47:18;;;;;;;2.72;1.20;;;24.10;39.10;;;;;;4987666;28;20486;-42
2022/04/26 16:49:44;;;;;;;1.67;0.93;;;24.10;39.20;;;;;;4987191;28;20113;-42
2022/04/26 16:52:09;;;;;;;2.97;1.40;;;24.10;39.30;;;;;;5005709;28;20036;-44
2022/04/26 16:54:35;;;;;;;2.33;0.95;;;24.10;39.30;;;;;;5006648;28;20022;-45
2022/04/26 16:57:01;;;;;;;3.13;1.20;;;24.10;39.30;;;;;;5005308;28;20037;-43
2022/04/26 16:59:29;;;;;;;2.95;1.20;;;24.00;39.30;;;;;;5006826;28;20041;-44
2022/04/26 17:01:55;;;;;;;2.30;1.23;;;24.00;39.30;;;;;;5007199;28;20485;-43
2022/04/26 17:04:21;;;;;;;3.08;1.23;;;24.00;39.40;;;;;;5008114;28;20486;-44
2022/04/26 17:06:47;;;;;;;3.10;1.20;;;24.00;39.40;;;;;;5007771;28;20040;-45
2022/04/26 17:09:13;;;;;;;2.30;1.15;;;24.10;39.50;;;;;;5008116;28;20022;-43
2022/04/26 17:11:42;;;;;;;1.75;0.88;;;24.00;39.40;;;;;;5007774;28;20026;-44
2022/04/26 17:14:12;;;;;;;2.30;1.20;;;24.00;39.40;;;;;;5007603;28;20062;-44